createdAt,value
2022-11-05T00:02:30.050Z,100826.28
2022-11-05T00:05:15.751Z,100827.41
2022-11-05T00:08:05.570Z,100832.06
2022-11-05T00:10:36.800Z,100830.38
2022-11-05T00:13:22.769Z,100837.66
2022-11-05T00:16:08.441Z,100831.56
2022-11-05T00:18:37.892Z,100838.94
2022-11-05T00:21:26.283Z,100831.94
2022-11-05T00:24:11.924Z,100841.06
2022-11-05T00:26:40.049Z,100843.09
2022-11-05T00:29:08.076Z,100842.38
2022-11-05T00:31:36.650Z,100839.94
2022-11-05T00:34:06.022Z,100850.75
2022-11-05T00:36:34.024Z,100852.75
2022-11-05T00:39:02.061Z,100844.94
2022-11-05T00:41:30.133Z,100845.91
2022-11-05T00:44:15.636Z,100859.34
2022-11-05T00:46:43.618Z,100860.41
2022-11-05T00:49:30.225Z,100864.06
2022-11-05T00:52:19.058Z,100867.78
2022-11-05T00:54:47.074Z,100872.31
2022-11-05T00:57:15.086Z,100868.91
2022-11-05T00:59:43.067Z,100872.56
2022-11-05T01:02:11.169Z,100871.75
2022-11-05T01:04:40.585Z,100872.72
2022-11-05T01:07:08.589Z,100880.88
2022-11-05T01:09:36.584Z,100872.97
2022-11-05T01:12:04.983Z,100876.66
2022-11-05T01:14:33.339Z,100884.72
2022-11-05T01:17:01.313Z,100879.47
2022-11-05T01:19:29.414Z,100878.66
2022-11-05T01:21:58.759Z,100879.59
2022-11-05T01:24:26.801Z,100880.53
2022-11-05T01:26:54.841Z,100881.47
2022-11-05T01:29:22.823Z,100887.75
2022-11-05T01:31:50.940Z,100885.13
2022-11-05T01:34:18.902Z,100876.25
2022-11-05T01:36:47.041Z,100879.84
2022-11-05T01:39:16.692Z,100871.91
2022-11-05T01:41:44.679Z,100872.81
2022-11-05T01:44:47.013Z,100880.00
2022-11-05T01:47:21.957Z,100873.84
2022-11-05T01:49:50.067Z,100876.53
2022-11-05T01:52:18.124Z,100881.88
2022-11-05T01:54:47.614Z,100883.66
2022-11-05T01:57:15.844Z,100888.16
2022-11-05T01:59:47.082Z,100887.28
2022-11-05T02:02:15.243Z,100884.59
2022-11-05T02:04:46.530Z,100886.47
2022-11-05T02:07:14.977Z,100890.94
2022-11-05T02:09:46.208Z,100893.53
2022-11-05T02:12:15.818Z,100895.34
2022-11-05T02:14:43.796Z,100885.59
2022-11-05T02:17:17.968Z,100891.88
2022-11-05T02:20:10.759Z,100896.41
2022-11-05T02:23:26.325Z,100896.44
2022-11-05T02:26:37.495Z,100890.28
2022-11-05T02:29:35.831Z,100891.88
2022-11-05T02:32:09.716Z,100894.22
2022-11-05T02:34:49.794Z,100880.66
2022-11-05T02:37:24.880Z,100881.41
2022-11-05T02:39:57.812Z,100877.75
2022-11-05T02:42:31.495Z,100882.22
2022-11-05T02:45:06.985Z,100888.50
2022-11-05T02:47:42.209Z,100892.09
2022-11-05T02:50:20.299Z,100891.16
2022-11-05T02:52:57.904Z,100893.84
2022-11-05T02:55:28.677Z,100893.84
2022-11-05T02:57:56.677Z,100895.56
2022-11-05T03:00:41.324Z,100892.91
2022-11-05T03:03:18.318Z,100894.63
2022-11-05T03:05:55.178Z,100899.03
2022-11-05T03:08:32.162Z,100892.81
2022-11-05T03:11:05.050Z,100891.09
2022-11-05T03:13:39.486Z,100892.91
2022-11-05T03:16:13.146Z,100891.16
2022-11-05T03:18:48.640Z,100897.44
2022-11-05T03:21:21.621Z,100895.63
2022-11-05T03:23:56.366Z,100901.84
2022-11-05T03:26:28.138Z,100900.16
2022-11-05T03:29:00.359Z,100902.78
2022-11-05T03:31:30.509Z,100906.25
2022-11-05T03:34:00.995Z,100906.25
2022-11-05T03:36:34.854Z,100908.00
2022-11-05T03:39:07.014Z,100908.88
2022-11-05T03:41:36.115Z,100906.16
2022-11-05T03:44:06.545Z,100907.03
2022-11-05T03:46:38.264Z,100903.44
2022-11-05T03:49:09.204Z,100906.97
2022-11-05T03:51:42.558Z,100906.91
2022-11-05T03:54:11.265Z,100910.44
2022-11-05T03:56:44.416Z,100908.59
2022-11-05T03:59:13.556Z,100914.69
2022-11-05T04:01:43.175Z,100919.00
2022-11-05T04:04:12.594Z,100920.53
2022-11-05T04:06:58.238Z,100919.50
2022-11-05T04:09:43.873Z,100918.53
2022-11-05T04:12:29.429Z,100924.47
2022-11-05T04:14:57.496Z,100932.28
2022-11-05T04:17:24.716Z,100932.16
2022-11-05T04:20:11.618Z,100940.91
2022-11-05T04:22:57.183Z,100929.22
2022-11-05T04:25:25.210Z,100934.47
2022-11-05T04:27:53.295Z,100937.94
2022-11-05T04:30:20.765Z,100938.75
2022-11-05T04:33:02.510Z,100943.22
2022-11-05T04:35:33.302Z,100947.72
2022-11-05T04:38:01.608Z,100951.25
2022-11-05T04:40:30.115Z,100947.72
2022-11-05T04:42:58.610Z,100941.38
2022-11-05T04:45:28.371Z,100945.72
2022-11-05T04:47:56.380Z,100957.06
2022-11-05T04:50:24.873Z,100953.25
2022-11-05T04:52:54.251Z,100954.75
2022-11-05T04:55:22.319Z,100954.50
2022-11-05T04:57:50.629Z,100954.25
2022-11-05T05:00:19.400Z,100961.19
2022-11-05T05:02:47.574Z,100960.97
2022-11-05T05:05:15.931Z,100955.53
2022-11-05T05:07:44.176Z,100954.47
2022-11-05T05:10:14.104Z,100951.72
2022-11-05T05:12:42.114Z,100949.78
2022-11-05T05:15:10.210Z,100958.63
2022-11-05T05:17:38.257Z,100947.84
2022-11-05T05:20:35.467Z,100957.56
2022-11-05T05:23:03.677Z,100961.03
2022-11-05T05:25:33.038Z,100955.63
2022-11-05T05:28:01.027Z,100956.41
2022-11-05T05:30:29.049Z,100959.97
2022-11-05T05:32:57.060Z,100966.16
2022-11-05T05:35:25.085Z,100974.91
2022-11-05T05:37:56.672Z,100973.75
2022-11-05T05:40:24.815Z,100978.00
2022-11-05T05:42:56.246Z,100976.00
2022-11-05T05:45:24.267Z,100972.19
2022-11-05T05:47:52.297Z,100968.44
2022-11-05T05:50:20.373Z,100965.47
2022-11-05T05:52:48.401Z,100967.97
2022-11-05T05:55:16.516Z,100977.59
2022-11-05T05:57:44.501Z,100971.16
2022-11-05T06:00:15.250Z,100975.47
2022-11-05T06:02:43.494Z,100974.47
2022-11-05T06:05:11.580Z,100980.63
2022-11-05T06:07:39.591Z,100979.69
2022-11-05T06:10:08.243Z,100977.94
2022-11-05T06:12:36.278Z,100977.13
2022-11-05T06:15:04.887Z,100980.91
2022-11-05T06:17:35.378Z,100978.41
2022-11-05T06:20:03.449Z,100983.97
2022-11-05T06:22:31.474Z,100977.06
2022-11-05T06:24:59.425Z,100981.69
2022-11-05T06:27:27.439Z,100980.03
2022-11-05T06:29:55.490Z,100992.63
2022-11-05T06:32:23.493Z,100997.22
2022-11-05T06:34:52.850Z,101001.84
2022-11-05T06:37:20.976Z,101007.25
2022-11-05T06:39:48.963Z,101010.94
2022-11-05T06:42:18.692Z,101011.94
2022-11-05T06:44:47.305Z,101019.13
2022-11-05T06:47:15.358Z,101016.50
2022-11-05T06:49:43.332Z,101011.25
2022-11-05T06:52:13.158Z,101013.94
2022-11-05T06:54:42.418Z,101016.69
2022-11-05T06:57:11.150Z,101021.22
2022-11-05T06:59:39.622Z,101031.06
2022-11-05T07:02:08.651Z,101029.31
2022-11-05T07:04:36.765Z,101038.28
2022-11-05T07:07:04.817Z,101035.69
2022-11-05T07:09:34.195Z,101039.31
2022-11-05T07:12:02.197Z,101041.13
2022-11-05T07:14:30.234Z,101042.94
2022-11-05T07:16:58.546Z,101041.22
2022-11-05T07:19:26.598Z,101046.63
2022-11-05T07:21:54.577Z,101047.50
2022-11-05T07:24:22.652Z,101051.91
2022-11-05T07:26:52.021Z,101052.72
2022-11-05T07:29:20.021Z,101043.72
2022-11-05T07:31:48.124Z,101048.06
2022-11-05T07:34:16.149Z,101048.06
2022-11-05T07:36:44.186Z,101052.47
2022-11-05T07:39:12.181Z,101054.28
2022-11-05T07:41:40.221Z,101042.66
2022-11-05T07:44:09.751Z,101057.72
2022-11-05T07:46:37.774Z,101050.47
2022-11-05T07:49:05.913Z,101050.38
2022-11-05T07:51:34.000Z,101054.66
2022-11-05T07:54:02.053Z,101059.88
2022-11-05T07:56:30.094Z,101053.44
2022-11-05T07:58:58.104Z,101051.47
2022-11-05T08:01:27.675Z,101060.97
2022-11-05T08:03:55.812Z,101067.75
2022-11-05T08:06:23.814Z,101065.56
2022-11-05T08:08:51.807Z,101066.13
2022-11-05T08:11:19.944Z,101067.44
2022-11-05T08:13:47.988Z,101064.44
2022-11-05T08:16:16.003Z,101065.88
2022-11-05T08:18:45.811Z,101073.53
2022-11-05T08:21:13.814Z,101069.56
2022-11-05T08:23:43.002Z,101073.59
2022-11-05T08:26:11.156Z,101079.34
2022-11-05T08:28:39.264Z,101076.13
2022-11-05T08:31:07.302Z,101071.22
2022-11-05T08:33:35.393Z,101066.22
2022-11-05T08:36:06.072Z,101070.38
2022-11-05T08:38:34.127Z,101067.22
2022-11-05T08:41:02.218Z,101068.63
2022-11-05T08:43:30.212Z,101069.91
2022-11-05T08:45:58.208Z,101069.41
2022-11-05T08:48:26.325Z,101068.88
2022-11-05T08:50:54.339Z,101067.47
2022-11-05T08:53:23.687Z,101070.41
2022-11-05T08:55:51.820Z,101071.69
2022-11-05T08:58:20.722Z,101070.13
2022-11-05T09:00:50.674Z,101079.28
2022-11-05T09:03:19.083Z,101090.19
2022-11-05T09:05:47.619Z,101087.53
2022-11-05T09:08:17.108Z,101091.44
2022-11-05T09:10:47.156Z,101086.88
2022-11-05T09:13:19.255Z,101094.06
2022-11-05T09:15:48.528Z,101095.81
2022-11-05T09:18:16.888Z,101096.16
2022-11-05T09:20:45.024Z,101092.66
2022-11-05T09:23:14.886Z,101103.28
2022-11-05T09:25:43.419Z,101097.66
2022-11-05T09:28:16.750Z,101095.78
2022-11-05T09:30:46.948Z,101100.28
2022-11-05T09:33:15.541Z,101097.66
2022-11-05T09:35:44.107Z,101103.75
2022-11-05T09:38:12.203Z,101103.59
2022-11-05T09:43:20.270Z,101108.03
2022-11-05T09:45:50.229Z,101117.38
2022-11-05T09:48:19.941Z,101114.34
2022-11-05T09:50:48.457Z,101123.91
2022-11-05T09:53:18.576Z,101117.41
2022-11-05T09:55:49.159Z,101125.00
2022-11-05T09:58:25.993Z,101122.88
2022-11-05T10:00:57.425Z,101129.75
2022-11-05T10:03:27.479Z,101134.66
2022-11-05T10:06:08.331Z,101129.91
2022-11-05T10:08:41.312Z,101127.66
2022-11-05T10:11:15.424Z,101124.19
2022-11-05T10:13:47.360Z,101119.97
2022-11-05T10:16:22.577Z,101127.94
2022-11-05T10:18:54.964Z,101131.47
2022-11-05T10:21:38.047Z,101130.28
2022-11-05T10:24:16.229Z,101138.19
2022-11-05T10:26:46.519Z,101137.03
2022-11-05T10:29:23.599Z,101137.03
2022-11-05T10:31:53.463Z,101134.06
2022-11-05T10:34:23.274Z,101122.16
2022-11-05T10:36:51.272Z,101124.41
2022-11-05T10:39:21.010Z,101116.03
2022-11-05T10:42:00.567Z,101115.56
2022-11-05T10:44:35.311Z,101111.47
2022-11-05T10:47:26.136Z,101114.16
2022-11-05T10:49:59.186Z,101127.72
2022-11-05T10:52:28.211Z,101131.84
2022-11-05T10:54:59.684Z,101137.75
2022-11-05T10:57:30.539Z,101140.81
2022-11-05T11:00:28.267Z,101139.53
2022-11-05T11:02:59.807Z,101147.44
2022-11-05T11:05:31.025Z,101145.59
2022-11-05T11:08:05.755Z,101141.84
2022-11-05T11:10:39.955Z,101142.38
2022-11-05T11:13:18.943Z,101132.09
2022-11-05T11:15:50.763Z,101136.91
2022-11-05T11:18:35.868Z,101140.84
2022-11-05T11:21:08.799Z,101138.38
2022-11-05T11:23:41.053Z,101134.19
2022-11-05T11:26:09.962Z,101136.59
2022-11-05T11:28:40.977Z,101124.56
2022-11-05T11:31:14.487Z,101125.88
2022-11-05T11:33:45.769Z,101127.41
2022-11-05T11:36:14.065Z,101120.78
2022-11-05T11:38:42.629Z,101125.22
2022-11-05T11:41:24.503Z,101126.84
2022-11-05T11:43:56.112Z,101126.66
2022-11-05T11:46:25.655Z,101137.38
2022-11-05T11:48:53.677Z,101138.13
2022-11-05T11:51:31.131Z,101135.44
2022-11-05T11:54:00.268Z,101127.31
2022-11-05T11:56:29.048Z,101127.31
2022-11-05T11:58:59.327Z,101129.16
2022-11-05T12:01:46.242Z,101139.00
2022-11-05T12:04:52.843Z,101142.34
2022-11-05T12:07:31.607Z,101127.94
2022-11-05T12:10:11.929Z,101129.44
2022-11-05T12:12:45.755Z,101121.41
2022-11-05T12:15:26.435Z,101127.06
2022-11-05T12:18:00.426Z,101121.31
2022-11-05T12:20:39.095Z,101118.06
2022-11-05T12:23:45.763Z,101122.19
2022-11-05T12:26:22.919Z,101126.53
2022-11-05T12:29:18.322Z,101132.06
2022-11-05T12:31:54.369Z,101127.72
2022-11-05T12:34:35.179Z,101120.91
2022-11-05T12:37:17.015Z,101124.81
2022-11-05T12:39:53.962Z,101131.59
2022-11-05T12:42:31.418Z,101127.38
2022-11-05T12:45:03.706Z,101129.34
2022-11-05T12:47:48.087Z,101128.00
2022-11-05T12:50:23.706Z,101127.56
2022-11-05T12:53:24.626Z,101127.56
2022-11-05T12:55:52.696Z,101126.28
2022-11-05T12:58:24.980Z,101119.78
2022-11-05T13:00:57.533Z,101127.69
2022-11-05T13:03:38.516Z,101129.13
2022-11-05T13:06:11.297Z,101118.81
2022-11-05T13:08:43.937Z,101130.22
2022-11-05T13:11:18.185Z,101133.69
2022-11-05T13:13:51.376Z,101132.38
2022-11-05T13:16:26.541Z,101125.34
2022-11-05T13:18:57.897Z,101130.22
2022-11-05T13:21:29.552Z,101125.34
2022-11-05T13:24:03.445Z,101125.88
2022-11-05T13:26:36.474Z,101128.38
2022-11-05T13:29:07.809Z,101129.03
2022-11-05T13:31:38.029Z,101126.97
2022-11-05T13:34:10.531Z,101119.47
2022-11-05T13:37:05.457Z,101129.50
2022-11-05T13:39:36.217Z,101132.50
2022-11-05T13:42:49.147Z,101136.13
2022-11-05T13:45:47.383Z,101142.13
2022-11-05T13:48:52.169Z,101129.19
2022-11-05T13:51:39.513Z,101136.09
2022-11-05T13:54:24.705Z,101140.03
2022-11-05T13:57:04.833Z,101134.84
2022-11-05T13:59:55.347Z,101142.06
2022-11-05T14:02:25.850Z,101143.91
2022-11-05T14:05:00.769Z,101134.06
2022-11-05T14:07:32.094Z,101134.44
2022-11-05T14:10:06.439Z,101130.31
2022-11-05T14:12:36.410Z,101140.63
2022-11-05T14:15:08.570Z,101132.06
2022-11-05T14:17:59.275Z,101135.25
2022-11-05T14:20:45.831Z,101129.28
2022-11-05T14:23:39.197Z,101143.16
2022-11-05T14:26:19.690Z,101139.84
2022-11-05T14:28:52.859Z,101146.41
2022-11-05T14:34:46.056Z,101135.09
2022-11-05T14:37:34.393Z,101137.34
2022-11-05T14:40:27.396Z,101142.13
2022-11-05T14:42:59.501Z,101145.31
2022-11-05T14:45:30.513Z,101142.00
2022-11-05T14:48:00.295Z,101141.44
2022-11-05T14:50:36.869Z,101136.28
2022-11-05T14:53:26.768Z,101146.59
2022-11-05T14:56:00.880Z,101138.84
2022-11-05T14:58:35.412Z,101139.25
2022-11-05T15:01:06.069Z,101148.50
2022-11-05T15:03:59.762Z,101140.75
2022-11-05T15:06:31.195Z,101147.28
2022-11-05T15:09:14.188Z,101145.81
2022-11-05T15:11:46.798Z,101150.59
2022-11-05T15:14:21.902Z,101157.06
2022-11-05T15:16:52.834Z,101151.91
2022-11-05T15:19:25.433Z,101158.44
2022-11-05T15:21:55.406Z,101155.94
2022-11-05T15:24:23.738Z,101143.59
2022-11-05T15:26:57.798Z,101145.59
2022-11-05T15:29:30.349Z,101152.13
2022-11-05T15:31:59.658Z,101148.75
2022-11-05T15:34:29.893Z,101148.97
2022-11-05T15:36:59.632Z,101151.09
2022-11-05T15:39:34.599Z,101153.97
2022-11-05T15:42:05.862Z,101152.38
2022-11-05T15:44:40.532Z,101156.97
2022-11-05T15:47:14.505Z,101160.72
2022-11-05T15:49:44.428Z,101150.91
2022-11-05T15:52:16.890Z,101158.22
2022-11-05T15:54:45.278Z,101163.75
2022-11-05T15:57:25.375Z,101159.50
2022-11-05T15:59:55.036Z,101174.00
2022-11-05T16:02:32.827Z,101165.22
2022-11-05T16:05:02.630Z,101167.13
2022-11-05T16:07:31.128Z,101166.41
2022-11-05T16:10:00.967Z,101172.75
2022-11-05T16:12:33.629Z,101169.28
2022-11-05T16:15:19.441Z,101171.09
2022-11-05T16:17:51.495Z,101171.97
2022-11-05T16:20:22.840Z,101176.47
2022-11-05T16:22:52.353Z,101171.09
2022-11-05T16:25:39.562Z,101165.63
2022-11-05T16:28:19.561Z,101170.06
2022-11-05T16:30:55.670Z,101169.09
2022-11-05T16:33:24.511Z,101175.34
2022-11-05T16:35:52.582Z,101173.53
2022-11-05T16:38:21.227Z,101174.41
2022-11-05T16:40:49.233Z,101177.09
2022-11-05T16:43:20.290Z,101186.03
2022-11-05T16:45:49.307Z,101184.31
2022-11-05T16:48:18.678Z,101182.47
2022-11-05T16:50:46.965Z,101180.75
2022-11-05T16:53:17.020Z,101172.75
2022-11-05T16:55:46.227Z,101184.38
2022-11-05T16:58:20.446Z,101175.44
2022-11-05T17:00:49.382Z,101177.34
2022-11-05T17:03:18.924Z,101174.75
2022-11-05T17:05:47.384Z,101178.41
2022-11-05T17:08:15.694Z,101182.03
2022-11-05T17:10:44.036Z,101193.69
2022-11-05T17:13:15.332Z,101186.66
2022-11-05T17:15:44.474Z,101192.03
2022-11-05T17:18:18.185Z,101190.13
2022-11-05T17:20:49.659Z,101184.88
2022-11-05T17:23:19.050Z,101193.06
2022-11-05T17:25:49.871Z,101188.63
2022-11-05T17:28:18.878Z,101194.09
2022-11-05T17:30:52.368Z,101184.38
2022-11-05T17:33:22.791Z,101176.28
2022-11-05T17:35:52.660Z,101189.06
2022-11-05T17:38:21.494Z,101185.41
2022-11-05T17:40:49.544Z,101186.44
2022-11-05T17:43:17.811Z,101183.81
2022-11-05T17:45:47.895Z,101186.59
2022-11-05T17:48:16.466Z,101188.41
2022-11-05T17:50:46.063Z,101191.19
2022-11-05T17:53:16.348Z,101192.16
2022-11-05T17:55:45.703Z,101194.94
2022-11-05T17:58:14.361Z,101190.56
2022-11-05T18:00:43.612Z,101198.66
2022-11-05T18:03:12.398Z,101205.88
2022-11-05T18:05:41.140Z,101192.50
2022-11-05T18:08:09.534Z,101192.53
2022-11-05T18:10:39.218Z,101207.81
2022-11-05T18:13:07.680Z,101211.38
2022-11-05T18:15:38.046Z,101203.41
2022-11-05T18:18:06.099Z,101201.56
2022-11-05T18:20:34.367Z,101190.81
2022-11-05T18:23:02.782Z,101188.19
2022-11-05T18:25:30.786Z,101194.63
2022-11-05T18:28:00.163Z,101196.44
2022-11-05T18:30:28.217Z,101184.97
2022-11-05T18:32:56.263Z,101191.31
2022-11-05T18:35:24.281Z,101191.31
2022-11-05T18:37:52.300Z,101189.63
2022-11-05T18:40:20.388Z,101197.72
2022-11-05T18:42:48.381Z,101188.84
2022-11-05T18:45:17.752Z,101185.28
2022-11-05T18:47:45.757Z,101182.69
2022-11-05T18:50:14.084Z,101176.44
2022-11-05T18:52:42.133Z,101181.88
2022-11-05T18:55:10.831Z,101187.19
2022-11-05T18:57:39.197Z,101184.59
2022-11-05T19:00:08.414Z,101172.94
2022-11-05T19:02:37.932Z,101174.84
2022-11-05T19:05:28.076Z,101171.22
2022-11-05T19:07:54.696Z,101173.03
2022-11-05T19:10:22.679Z,101172.16
2022-11-05T19:12:50.683Z,101180.25
2022-11-05T19:15:18.931Z,101176.69
2022-11-05T19:17:48.498Z,101172.16
2022-11-05T19:20:16.531Z,101176.59
2022-11-05T19:22:44.538Z,101181.97
2022-11-05T19:25:12.552Z,101182.84
2022-11-05T19:27:41.085Z,101184.59
2022-11-05T19:30:10.049Z,101186.41
2022-11-05T19:32:38.129Z,101182.75
2022-11-05T19:35:08.116Z,101182.75
2022-11-05T19:37:36.133Z,101176.50
2022-11-05T19:40:04.346Z,101182.84
2022-11-05T19:42:32.381Z,101186.41
2022-11-05T19:45:16.674Z,101181.09
2022-11-05T19:47:48.440Z,101177.56
2022-11-05T19:50:17.996Z,101182.94
2022-11-05T19:52:45.981Z,101178.50
2022-11-05T19:55:13.979Z,101175.81
2022-11-05T19:57:42.011Z,101173.03
2022-11-05T20:00:11.090Z,101175.72
2022-11-05T20:02:39.177Z,101182.94
2022-11-05T20:05:07.453Z,101182.16
2022-11-05T20:07:36.956Z,101183.09
2022-11-05T20:10:06.108Z,101184.03
2022-11-05T20:12:35.301Z,101186.72
2022-11-05T20:15:03.985Z,101184.03
2022-11-05T20:17:32.012Z,101184.03
2022-11-05T20:20:00.553Z,101184.03
2022-11-05T20:22:28.733Z,101183.16
2022-11-05T20:24:58.130Z,101181.31
2022-11-05T20:27:26.126Z,101176.03
2022-11-05T20:29:54.120Z,101175.16
2022-11-05T20:32:22.141Z,101170.56
2022-11-05T20:34:50.149Z,101174.22
2022-11-05T20:37:18.158Z,101177.84
2022-11-05T20:39:46.355Z,101167.16
2022-11-05T20:42:15.720Z,101161.88
2022-11-05T20:44:43.704Z,101176.28
2022-11-05T20:47:11.739Z,101172.81
2022-11-05T20:49:39.774Z,101185.41
2022-11-05T20:54:35.955Z,101181.06
2022-11-05T20:57:04.025Z,101191.88
2022-11-05T20:59:33.880Z,101196.38
2022-11-05T21:02:02.538Z,101188.38
2022-11-05T21:04:30.971Z,101183.09
2022-11-05T21:06:59.141Z,101185.78
2022-11-05T21:09:27.139Z,101202.88
2022-11-05T21:12:13.331Z,101189.50
2022-11-05T21:14:44.459Z,101203.91
2022-11-05T21:17:13.530Z,101197.66
2022-11-05T21:19:41.556Z,101203.03
2022-11-05T21:22:09.626Z,101209.38
2022-11-05T21:24:37.642Z,101204.00
2022-11-05T21:27:05.724Z,101204.84
2022-11-05T21:29:33.789Z,101207.56
2022-11-05T21:32:03.253Z,101204.00
2022-11-05T21:34:31.258Z,101193.22
2022-11-05T21:36:59.464Z,101190.53
2022-11-05T21:39:27.711Z,101192.28
2022-11-05T21:41:55.767Z,101193.16
2022-11-05T21:44:23.815Z,101188.63
2022-11-05T21:46:52.888Z,101194.00
2022-11-05T21:49:22.297Z,101194.00
2022-11-05T21:52:07.760Z,101188.63
2022-11-05T21:54:53.290Z,101179.59
2022-11-05T21:57:41.227Z,101171.53
2022-11-05T22:00:12.223Z,101174.22
2022-11-05T22:02:40.382Z,101168.84
2022-11-05T22:05:10.549Z,101167.09
2022-11-05T22:07:40.175Z,101170.75
2022-11-05T22:10:14.846Z,101176.13
2022-11-05T22:12:44.678Z,101170.75
2022-11-05T22:15:13.306Z,101171.63
2022-11-05T22:17:46.462Z,101178.75
2022-11-05T22:20:16.892Z,101164.41
2022-11-05T22:22:45.129Z,101172.50
2022-11-05T22:25:14.002Z,101162.69
2022-11-05T22:27:42.027Z,101155.47
2022-11-05T22:30:10.710Z,101154.59
2022-11-05T22:32:38.822Z,101156.34
2022-11-05T22:35:07.835Z,101148.28
2022-11-05T22:37:37.225Z,101143.75
2022-11-05T22:40:05.854Z,101145.59
2022-11-05T22:42:33.944Z,101145.59
2022-11-05T22:45:02.059Z,101148.19
2022-11-05T22:47:30.104Z,101142.72
2022-11-05T22:49:58.281Z,101142.81
2022-11-05T22:52:26.334Z,101141.94
2022-11-05T22:54:55.729Z,101138.38
2022-11-05T22:57:23.776Z,101140.22
2022-11-05T22:59:51.850Z,101133.94
2022-11-05T23:02:19.957Z,101130.41
2022-11-05T23:04:49.483Z,101126.91
2022-11-05T23:07:34.732Z,101129.63
2022-11-05T23:10:21.643Z,101127.88
2022-11-05T23:12:49.640Z,101121.63
2022-11-05T23:15:31.579Z,101123.38
2022-11-05T23:18:16.707Z,101123.44
2022-11-05T23:21:02.282Z,101120.75
2022-11-05T23:23:44.193Z,101115.38
2022-11-05T23:26:27.506Z,101105.53
2022-11-05T23:28:55.545Z,101110.91
2022-11-05T23:31:40.882Z,101107.31
2022-11-05T23:34:08.920Z,101104.63
2022-11-05T23:36:54.579Z,101105.47
2022-11-05T23:39:22.561Z,101099.28
2022-11-05T23:42:09.476Z,101097.47
2022-11-05T23:44:55.209Z,101095.69
2022-11-05T23:47:40.863Z,101091.22
2022-11-05T23:50:09.550Z,101088.53
2022-11-05T23:52:37.591Z,101085.91
2022-11-05T23:55:06.303Z,101098.41
2022-11-05T23:57:36.894Z,101096.69
